createdAt,value
2018-09-04T00:00:47.912Z,96193.86
2018-09-04T00:03:16.258Z,96195.52
2018-09-04T00:05:44.746Z,96183.98
2018-09-04T00:08:13.248Z,96179.98
2018-09-04T00:10:41.989Z,96178.60
2018-09-04T00:13:10.394Z,96179.35
2018-09-04T00:15:38.741Z,96182.91
2018-09-04T00:18:07.069Z,96182.79
2018-09-04T00:20:35.486Z,96192.42
2018-09-04T00:23:03.877Z,96189.95
2018-09-04T00:25:32.242Z,96190.60
2018-09-04T00:28:00.713Z,96185.91
2018-09-04T00:30:29.090Z,96187.03
2018-09-04T00:32:57.458Z,96182.39
2018-09-04T00:35:26.045Z,96174.91
2018-09-04T00:37:54.439Z,96171.52
2018-09-04T00:40:22.823Z,96173.70
2018-09-04T00:42:51.332Z,96177.88
2018-09-04T00:45:19.857Z,96176.86
2018-09-04T00:47:48.331Z,96173.78
2018-09-04T00:50:16.735Z,96168.36
2018-09-04T00:52:45.090Z,96172.45
2018-09-04T00:55:13.507Z,96171.67
2018-09-04T00:57:41.840Z,96166.85
2018-09-04T01:00:10.309Z,96170.05
2018-09-04T01:02:38.635Z,96172.83
2018-09-04T01:05:07.050Z,96169.55
2018-09-04T01:07:35.449Z,96177.27
2018-09-04T01:10:03.899Z,96167.08
2018-09-04T01:12:32.580Z,96164.12
2018-09-04T01:15:00.962Z,96162.78
2018-09-04T01:17:29.312Z,96163.59
2018-09-04T01:19:57.716Z,96164.00
2018-09-04T01:22:29.199Z,96168.00
2018-09-04T01:24:57.600Z,96164.72
2018-09-04T01:27:26.031Z,96169.34
2018-09-04T01:29:54.487Z,96172.23
2018-09-04T01:32:22.823Z,96177.87
2018-09-04T01:34:51.301Z,96184.14
2018-09-04T01:37:19.632Z,96185.56
2018-09-04T01:39:48.003Z,96194.18
2018-09-04T01:42:16.415Z,96191.31
2018-09-04T01:44:44.748Z,96192.84
2018-09-04T01:47:13.175Z,96187.19
2018-09-04T01:49:41.558Z,96192.53
2018-09-04T01:52:09.952Z,96194.88
2018-09-04T01:54:38.287Z,96193.87
2018-09-04T01:57:07.699Z,96192.19
2018-09-04T01:59:36.058Z,96187.25
2018-09-04T02:02:04.423Z,96180.90
2018-09-04T02:04:32.883Z,96181.30
2018-09-04T02:07:01.299Z,96179.07
2018-09-04T02:09:29.820Z,96175.19
2018-09-04T02:11:58.307Z,96172.83
2018-09-04T02:14:26.934Z,96172.71
2018-09-04T02:16:55.295Z,96169.14
2018-09-04T02:19:23.692Z,96166.96
2018-09-04T02:21:52.030Z,96163.07
2018-09-04T02:24:20.359Z,96162.17
2018-09-04T02:26:48.775Z,96166.47
2018-09-04T02:29:17.219Z,96164.00
2018-09-04T02:31:45.588Z,96165.13
2018-09-04T02:34:14.027Z,96162.98
2018-09-04T02:36:42.356Z,96162.90
2018-09-04T02:39:12.004Z,96167.10
2018-09-04T02:41:40.379Z,96158.48
2018-09-04T02:44:08.843Z,96160.95
2018-09-04T02:46:37.560Z,96159.50
2018-09-04T02:49:06.877Z,96161.47
2018-09-04T02:51:35.384Z,96160.04
2018-09-04T02:54:03.772Z,96162.48
2018-09-04T02:56:32.528Z,96162.48
2018-09-04T02:59:01.005Z,96160.04
2018-09-04T03:01:30.215Z,96157.38
2018-09-04T03:03:58.880Z,96163.81
2018-09-04T03:06:27.284Z,96158.27
2018-09-04T03:08:55.624Z,96159.41
2018-09-04T03:11:23.979Z,96163.09
2018-09-04T03:13:52.538Z,96160.74
2018-09-04T03:16:21.100Z,96160.11
2018-09-04T03:18:49.671Z,96162.48
2018-09-04T03:21:18.072Z,96158.16
2018-09-04T03:23:46.383Z,96159.81
2018-09-04T03:26:14.781Z,96159.62
2018-09-04T03:28:43.091Z,96157.44
2018-09-04T03:31:11.544Z,96158.16
2018-09-04T03:33:40.036Z,96161.96
2018-09-04T03:36:08.531Z,96158.05
2018-09-04T03:38:36.869Z,96154.89
2018-09-04T03:41:05.438Z,96166.17
2018-09-04T03:43:33.877Z,96160.31
2018-09-04T03:46:02.235Z,96155.79
2018-09-04T03:48:30.747Z,96162.17
2018-09-04T03:50:59.135Z,96153.64
2018-09-04T03:53:27.513Z,96160.72
2018-09-04T03:55:55.898Z,96158.48
2018-09-04T03:58:24.243Z,96155.20
2018-09-04T04:00:52.589Z,96158.89
2018-09-04T04:03:21.058Z,96159.93
2018-09-04T04:05:49.375Z,96165.27
2018-09-04T04:08:17.759Z,96168.66
2018-09-04T04:10:46.243Z,96167.00
2018-09-04T04:13:15.131Z,96165.15
2018-09-04T04:15:43.491Z,96163.52
2018-09-04T04:18:12.047Z,96168.34
2018-09-04T04:20:44.515Z,96163.44
2018-09-04T04:23:12.993Z,96167.92
2018-09-04T04:25:41.479Z,96162.39
2018-09-04T04:28:09.915Z,96162.39
2018-09-04T04:30:38.287Z,96166.59
2018-09-04T04:33:06.722Z,96168.77
2018-09-04T04:35:35.062Z,96171.44
2018-09-04T04:38:03.519Z,96173.06
2018-09-04T04:40:31.903Z,96184.05
2018-09-04T04:43:00.214Z,96181.39
2018-09-04T04:45:28.608Z,96188.06
2018-09-04T04:47:57.004Z,96181.79
2018-09-04T04:50:25.287Z,96186.52
2018-09-04T04:52:53.687Z,96186.80
2018-09-04T04:55:22.083Z,96192.66
2018-09-04T04:57:50.423Z,96183.84
2018-09-04T05:00:18.908Z,96187.65
2018-09-04T05:02:47.219Z,96191.13
2018-09-04T05:05:15.559Z,96192.66
2018-09-04T05:07:43.947Z,96196.86
2018-09-04T05:10:12.263Z,96200.86
2018-09-04T05:12:40.631Z,96195.66
2018-09-04T05:15:09.211Z,96201.80
2018-09-04T05:17:37.618Z,96200.47
2018-09-04T05:20:07.277Z,96200.47
2018-09-04T05:22:35.930Z,96202.33
2018-09-04T05:25:04.257Z,96206.81
2018-09-04T05:27:32.599Z,96205.80
2018-09-04T05:30:01.071Z,96211.46
2018-09-04T05:32:36.360Z,96207.23
2018-09-04T05:35:04.937Z,96201.08
2018-09-04T05:37:33.278Z,96203.75
2018-09-04T05:40:01.603Z,96206.22
2018-09-04T05:42:33.590Z,96199.64
2018-09-04T05:45:01.975Z,96202.42
2018-09-04T05:47:33.704Z,96202.92
2018-09-04T05:50:02.887Z,96204.97
2018-09-04T05:52:31.263Z,96202.11
2018-09-04T05:54:59.658Z,96198.72
2018-09-04T05:57:28.209Z,96206.00
2018-09-04T05:59:56.649Z,96209.28
2018-09-04T06:02:25.036Z,96210.41
2018-09-04T06:04:53.483Z,96215.13
2018-09-04T06:07:21.810Z,96210.63
2018-09-04T06:09:50.242Z,96208.88
2018-09-04T06:12:18.895Z,96208.36
2018-09-04T06:14:47.234Z,96210.63
2018-09-04T06:17:15.558Z,96207.95
2018-09-04T06:19:43.950Z,96213.78
2018-09-04T06:22:12.809Z,96213.78
2018-09-04T06:24:41.215Z,96214.11
2018-09-04T06:27:09.791Z,96212.25
2018-09-04T06:29:38.237Z,96212.69
2018-09-04T06:32:06.923Z,96217.50
2018-09-04T06:34:35.433Z,96221.80
2018-09-04T06:37:03.834Z,96222.52
2018-09-04T06:39:32.246Z,96228.98
2018-09-04T06:42:00.760Z,96228.79
2018-09-04T06:44:29.172Z,96238.11
2018-09-04T06:46:57.504Z,96235.13
2018-09-04T06:49:26.323Z,96237.49
2018-09-04T06:51:54.692Z,96242.84
2018-09-04T06:54:23.077Z,96243.54
2018-09-04T06:56:51.459Z,96244.96
2018-09-04T06:59:19.835Z,96249.09
2018-09-04T07:01:48.223Z,96250.91
2018-09-04T07:04:16.600Z,96249.81
2018-09-04T07:06:44.940Z,96253.50
2018-09-04T07:09:14.549Z,96252.88
2018-09-04T07:11:44.171Z,96258.63
2018-09-04T07:14:12.523Z,96253.81
2018-09-04T07:16:41.422Z,96259.27
2018-09-04T07:19:10.336Z,96261.31
2018-09-04T07:21:38.851Z,96266.05
2018-09-04T07:24:07.375Z,96266.56
2018-09-04T07:26:35.992Z,96274.87
2018-09-04T07:29:04.511Z,96265.00
2018-09-04T07:31:32.871Z,96274.14
2018-09-04T07:34:01.384Z,96275.80
2018-09-04T07:36:29.967Z,96269.94
2018-09-04T07:38:58.249Z,96274.76
2018-09-04T07:41:26.619Z,96274.47
2018-09-04T07:43:55.143Z,96274.47
2018-09-04T07:46:23.467Z,96273.02
2018-09-04T07:48:51.849Z,96273.24
2018-09-04T07:51:20.263Z,96277.54
2018-09-04T07:53:48.738Z,96274.87
2018-09-04T07:56:17.355Z,96279.92
2018-09-04T07:58:46.403Z,96278.46
2018-09-04T08:01:14.930Z,96278.89
2018-09-04T08:03:43.491Z,96277.33
2018-09-04T08:06:11.878Z,96278.46
2018-09-04T08:08:40.295Z,96276.41
2018-09-04T08:11:08.799Z,96278.35
2018-09-04T08:13:37.249Z,96273.86
2018-09-04T08:16:06.156Z,96272.30
2018-09-04T08:18:34.593Z,96274.56
2018-09-04T08:21:02.990Z,96278.27
2018-09-04T08:23:31.368Z,96280.10
2018-09-04T08:25:59.942Z,96284.42
2018-09-04T08:28:28.324Z,96287.71
2018-09-04T08:30:56.703Z,96279.38
2018-09-04T08:33:25.204Z,96288.84
2018-09-04T08:35:53.499Z,96288.94
2018-09-04T08:38:21.932Z,96289.75
2018-09-04T08:40:50.312Z,96287.89
2018-09-04T08:43:19.287Z,96285.55
2018-09-04T08:45:47.634Z,96285.14
2018-09-04T08:48:18.645Z,96284.62
2018-09-04T08:50:47.106Z,96281.75
2018-09-04T08:53:16.062Z,96283.78
2018-09-04T08:55:44.660Z,96272.89
2018-09-04T08:58:12.986Z,96275.66
2018-09-04T09:00:41.444Z,96273.31
2018-09-04T09:03:10.015Z,96269.59
2018-09-04T09:05:38.674Z,96270.40
2018-09-04T09:08:11.908Z,96270.92
2018-09-04T09:10:42.353Z,96270.72
2018-09-04T09:13:11.284Z,96276.03
2018-09-04T09:15:39.656Z,96283.36
2018-09-04T09:18:08.151Z,96280.37
2018-09-04T09:20:36.684Z,96277.70
2018-09-04T09:23:05.053Z,96278.71
2018-09-04T09:25:33.616Z,96274.21
2018-09-04T09:28:02.436Z,96271.02
2018-09-04T09:30:30.818Z,96274.50
2018-09-04T09:32:59.197Z,96266.20
2018-09-04T09:35:27.792Z,96272.44
2018-09-04T09:37:56.229Z,96269.27
2018-09-04T09:40:24.730Z,96269.77
2018-09-04T09:42:53.070Z,96273.57
2018-09-04T09:45:21.483Z,96273.89
2018-09-04T09:47:51.074Z,96272.23
2018-09-04T09:50:20.771Z,96272.23
2018-09-04T09:52:49.164Z,96274.38
2018-09-04T09:55:18.024Z,96272.03
2018-09-04T09:57:46.428Z,96269.04
2018-09-04T10:01:17.796Z,96268.75
2018-09-04T10:03:51.354Z,96272.75
2018-09-04T10:06:20.888Z,96278.02
2018-09-04T10:08:49.395Z,96273.72
2018-09-04T10:11:17.744Z,96269.19
2018-09-04T10:13:52.856Z,96271.53
2018-09-04T10:16:21.220Z,96277.08
2018-09-04T10:18:49.786Z,96273.08
2018-09-04T10:21:18.354Z,96271.53
2018-09-04T10:23:46.992Z,96273.08
2018-09-04T10:26:15.412Z,96270.63
2018-09-04T10:28:44.074Z,96275.54
2018-09-04T10:31:12.490Z,96271.66
2018-09-04T10:33:40.920Z,96273.59
2018-09-04T10:36:09.902Z,96268.86
2018-09-04T10:38:38.257Z,96272.14
2018-09-04T10:41:10.420Z,96274.38
2018-09-04T10:43:38.967Z,96266.98
2018-09-04T10:46:12.909Z,96278.80
2018-09-04T10:48:41.524Z,96276.65
2018-09-04T10:51:09.944Z,96270.98
2018-09-04T10:53:38.323Z,96279.00
2018-09-04T10:56:06.972Z,96281.67
2018-09-04T10:58:35.356Z,96284.29
2018-09-04T11:01:03.892Z,96292.19
2018-09-04T11:03:32.380Z,96295.36
2018-09-04T11:06:00.880Z,96302.94
2018-09-04T11:08:29.231Z,96302.61
2018-09-04T11:10:58.595Z,96296.34
2018-09-04T11:13:26.957Z,96297.47
2018-09-04T11:15:55.721Z,96292.13
2018-09-04T11:18:24.289Z,96290.98
2018-09-04T11:20:52.989Z,96289.41
2018-09-04T11:23:21.304Z,96285.34
2018-09-04T11:25:49.829Z,96277.45
2018-09-04T11:28:18.178Z,96280.28
2018-09-04T11:30:46.664Z,96282.22
2018-09-04T11:33:15.012Z,96282.41
2018-09-04T11:35:43.432Z,96275.39
2018-09-04T11:38:12.036Z,96276.08
2018-09-04T11:40:40.591Z,96277.52
2018-09-04T11:43:10.268Z,96272.17
2018-09-04T11:45:38.929Z,96270.18
2018-09-04T11:48:09.762Z,96283.42
2018-09-04T11:50:40.799Z,96287.84
2018-09-04T11:53:09.916Z,96283.41
2018-09-04T11:55:41.094Z,96285.03
2018-09-04T11:58:12.604Z,96292.33
2018-09-04T12:00:43.894Z,96285.84
2018-09-04T12:03:16.631Z,96289.36
2018-09-04T12:05:46.058Z,96289.25
2018-09-04T12:08:16.265Z,96284.42
2018-09-04T12:10:44.892Z,96290.80
2018-09-04T12:13:20.491Z,96288.13
2018-09-04T12:15:52.070Z,96287.63
2018-09-04T12:18:23.118Z,96291.11
2018-09-04T12:21:11.870Z,96286.70
2018-09-04T12:23:54.178Z,96294.34
2018-09-04T12:26:29.074Z,96289.11
2018-09-04T12:29:11.928Z,96291.19
2018-09-04T12:32:01.644Z,96291.31
2018-09-04T12:34:48.650Z,96292.73
2018-09-04T12:37:17.339Z,96290.77
2018-09-04T12:39:51.144Z,96284.69
2018-09-04T12:42:19.533Z,96285.89
2018-09-04T12:44:48.062Z,96287.23
2018-09-04T12:47:16.488Z,96282.77
2018-09-04T12:49:44.829Z,96281.55
2018-09-04T12:52:13.381Z,96281.34
2018-09-04T12:54:44.300Z,96286.55
2018-09-04T12:57:12.816Z,96286.10
2018-09-04T12:59:41.586Z,96293.19
2018-09-04T13:02:12.620Z,96292.48
2018-09-04T13:04:41.207Z,96293.61
2018-09-04T13:07:09.541Z,96291.15
2018-09-04T13:09:37.899Z,96297.63
2018-09-04T13:12:06.278Z,96297.42
2018-09-04T13:14:34.884Z,96293.48
2018-09-04T13:17:05.196Z,96300.48
2018-09-04T13:19:35.088Z,96300.56
2018-09-04T13:22:03.807Z,96305.71
2018-09-04T13:24:32.124Z,96299.41
2018-09-04T13:27:00.636Z,96304.52
2018-09-04T13:29:29.594Z,96305.44
2018-09-04T13:31:59.026Z,96309.03
2018-09-04T13:34:27.481Z,96305.63
2018-09-04T13:36:56.053Z,96309.92
2018-09-04T13:39:24.671Z,96309.92
2018-09-04T13:41:53.090Z,96307.98
2018-09-04T13:44:21.504Z,96313.27
2018-09-04T13:46:50.128Z,96305.37
2018-09-04T13:49:18.543Z,96304.52
2018-09-04T13:51:51.732Z,96301.63
2018-09-04T13:54:20.293Z,96313.69
2018-09-04T13:56:48.649Z,96314.81
2018-09-04T13:59:17.029Z,96318.83
2018-09-04T14:01:45.608Z,96316.36
2018-09-04T14:04:14.029Z,96318.64
2018-09-04T14:06:42.544Z,96310.75
2018-09-04T14:09:21.452Z,96309.41
2018-09-04T14:11:50.357Z,96314.48
2018-09-04T14:14:18.799Z,96316.42
2018-09-04T14:16:47.368Z,96316.95
2018-09-04T14:19:15.732Z,96313.42
2018-09-04T14:21:44.115Z,96320.44
2018-09-04T14:24:12.688Z,96324.52
2018-09-04T14:26:41.015Z,96314.95
2018-09-04T14:29:09.334Z,96312.87
2018-09-04T14:31:38.596Z,96317.41
2018-09-04T14:34:07.096Z,96315.83
2018-09-04T14:36:36.088Z,96316.75
2018-09-04T14:39:04.984Z,96313.34
2018-09-04T14:41:33.380Z,96312.53
2018-09-04T14:44:04.826Z,96306.12
2018-09-04T14:46:34.577Z,96309.64
2018-09-04T14:49:03.456Z,96308.30
2018-09-04T14:51:31.836Z,96315.94
2018-09-04T14:54:00.330Z,96318.30
2018-09-04T14:56:28.690Z,96316.75
2018-09-04T14:58:57.446Z,96316.09
2018-09-04T15:01:25.954Z,96322.16
2018-09-04T15:03:55.055Z,96323.49
2018-09-04T15:06:23.464Z,96319.08
2018-09-04T15:08:51.994Z,96323.02
2018-09-04T15:11:20.560Z,96326.73
2018-09-04T15:13:48.966Z,96322.50
2018-09-04T15:16:17.528Z,96323.28
2018-09-04T15:18:45.895Z,96325.61
2018-09-04T15:21:14.218Z,96323.29
2018-09-04T15:23:42.784Z,96324.00
2018-09-04T15:26:11.190Z,96322.52
2018-09-04T15:28:39.529Z,96321.25
2018-09-04T15:31:08.021Z,96314.88
2018-09-04T15:33:36.389Z,96318.44
2018-09-04T15:36:04.832Z,96324.99
2018-09-04T15:38:33.302Z,96320.72
2018-09-04T15:41:01.762Z,96327.66
2018-09-04T15:43:30.141Z,96325.72
2018-09-04T15:45:58.746Z,96329.59
2018-09-04T15:48:27.070Z,96329.16
2018-09-04T15:50:55.624Z,96326.80
2018-09-04T15:53:23.992Z,96324.12
2018-09-04T15:55:52.535Z,96320.09
2018-09-04T15:58:20.881Z,96316.36
2018-09-04T16:00:49.424Z,96319.36
2018-09-04T16:03:17.772Z,96315.34
2018-09-04T16:05:46.285Z,96320.86
2018-09-04T16:08:14.836Z,96319.16
2018-09-04T16:10:43.204Z,96317.45
2018-09-04T16:13:11.583Z,96318.36
2018-09-04T16:15:40.112Z,96309.36
2018-09-04T16:18:08.772Z,96313.45
2018-09-04T16:20:37.132Z,96313.98
2018-09-04T16:23:05.708Z,96318.28
2018-09-04T16:25:34.053Z,96320.59
2018-09-04T16:28:02.557Z,96322.09
2018-09-04T16:30:30.995Z,96326.93
2018-09-04T16:32:59.351Z,96320.08
2018-09-04T16:35:27.748Z,96322.22
2018-09-04T16:37:56.288Z,96320.23
2018-09-04T16:40:24.636Z,96312.55
2018-09-04T16:42:52.976Z,96318.34
2018-09-04T16:45:21.571Z,96319.94
2018-09-04T16:47:49.911Z,96324.45
2018-09-04T16:50:18.294Z,96323.21
2018-09-04T16:52:47.370Z,96323.88
2018-09-04T16:55:16.092Z,96320.97
2018-09-04T16:57:44.684Z,96325.38
2018-09-04T17:00:13.521Z,96326.72
2018-09-04T17:02:41.928Z,96324.63
2018-09-04T17:05:10.314Z,96323.50
2018-09-04T17:07:38.785Z,96327.74
2018-09-04T17:10:07.156Z,96331.98
2018-09-04T17:12:35.649Z,96325.52
2018-09-04T17:15:04.078Z,96325.42
2018-09-04T17:17:32.496Z,96326.39
2018-09-04T17:20:00.884Z,96329.22
2018-09-04T17:22:29.264Z,96324.92
2018-09-04T17:24:57.652Z,96334.73
2018-09-04T17:27:25.983Z,96335.20
2018-09-04T17:29:54.592Z,96332.95
2018-09-04T17:32:22.989Z,96339.27
2018-09-04T17:34:51.391Z,96337.27
2018-09-04T17:37:20.044Z,96341.43
2018-09-04T17:39:48.524Z,96343.09
2018-09-04T17:42:17.018Z,96339.44
2018-09-04T17:44:45.515Z,96347.62
2018-09-04T17:47:14.078Z,96350.66
2018-09-04T17:49:42.672Z,96352.13
2018-09-04T17:52:11.173Z,96346.67
2018-09-04T17:54:39.790Z,96355.16
2018-09-04T17:57:08.364Z,96359.08
2018-09-04T17:59:36.872Z,96358.19
2018-09-04T18:02:05.338Z,96368.31
2018-09-04T18:04:33.903Z,96370.91
2018-09-04T18:07:02.392Z,96372.75
2018-09-04T18:09:30.814Z,96369.47
2018-09-04T18:11:59.167Z,96372.08
2018-09-04T18:14:27.594Z,96369.61
2018-09-04T18:16:56.070Z,96369.53
2018-09-04T18:19:24.613Z,96370.55
2018-09-04T18:21:53.200Z,96370.27
2018-09-04T18:24:21.634Z,96379.85
2018-09-04T18:26:50.015Z,96377.91
2018-09-04T18:29:18.647Z,96381.22
2018-09-04T18:31:46.989Z,96385.08
2018-09-04T18:34:15.444Z,96379.86
2018-09-04T18:36:50.473Z,96385.10
2018-09-04T18:39:18.955Z,96388.30
2018-09-04T18:41:47.493Z,96388.75
2018-09-04T18:44:15.880Z,96392.66
2018-09-04T18:46:44.199Z,96391.77
2018-09-04T18:49:12.584Z,96386.83
2018-09-04T18:51:41.118Z,96397.46
2018-09-04T18:54:09.511Z,96403.23
2018-09-04T18:56:37.963Z,96407.16
2018-09-04T18:59:06.559Z,96405.31
2018-09-04T19:01:35.045Z,96407.27
2018-09-04T19:04:03.476Z,96411.48
2018-09-04T19:06:32.000Z,96413.88
2018-09-04T19:09:00.336Z,96417.08
2018-09-04T19:11:28.677Z,96419.64
2018-09-04T19:13:57.248Z,96419.88
2018-09-04T19:16:25.590Z,96416.72
2018-09-04T19:18:53.928Z,96413.16
2018-09-04T19:21:22.369Z,96418.62
2018-09-04T19:23:50.767Z,96412.86
2018-09-04T19:26:19.120Z,96413.38
2018-09-04T19:28:47.602Z,96412.86
2018-09-04T19:31:16.020Z,96416.27
2018-09-04T19:33:44.408Z,96425.13
2018-09-04T19:36:12.908Z,96424.63
2018-09-04T19:38:41.352Z,96425.55
2018-09-04T19:41:09.797Z,96428.55
2018-09-04T19:43:38.501Z,96431.94
2018-09-04T19:46:07.083Z,96431.65
2018-09-04T19:48:35.624Z,96428.13
2018-09-04T19:51:04.156Z,96429.17
2018-09-04T19:53:32.509Z,96430.52
2018-09-04T19:56:00.942Z,96436.67
2018-09-04T19:58:29.448Z,96433.19
2018-09-04T20:00:58.025Z,96430.61
2018-09-04T20:03:27.124Z,96437.00
2018-09-04T20:05:55.900Z,96438.01
2018-09-04T20:08:24.990Z,96437.20
2018-09-04T20:10:53.437Z,96436.88
2018-09-04T20:13:22.131Z,96436.17
2018-09-04T20:15:50.645Z,96430.32
2018-09-04T20:18:19.428Z,96438.73
2018-09-04T20:20:48.781Z,96431.16
2018-09-04T20:23:17.229Z,96434.22
2018-09-04T20:25:45.690Z,96429.97
2018-09-04T20:28:14.319Z,96433.27
2018-09-04T20:30:42.685Z,96423.83
2018-09-04T20:33:11.185Z,96420.73
2018-09-04T20:35:39.838Z,96417.64
2018-09-04T20:38:08.599Z,96425.77
2018-09-04T20:40:37.227Z,96422.16
2018-09-04T20:43:05.920Z,96427.50
2018-09-04T20:45:34.341Z,96433.45
2018-09-04T20:48:02.843Z,96434.50
2018-09-04T20:50:31.603Z,96433.45
2018-09-04T20:53:00.073Z,96434.92
2018-09-04T20:55:28.418Z,96431.53
2018-09-04T20:58:08.379Z,96435.34
2018-09-04T21:00:48.143Z,96435.43
2018-09-04T21:03:29.943Z,96439.01
2018-09-04T21:06:09.582Z,96442.09
2018-09-04T21:08:51.516Z,96435.83
2018-09-04T21:11:20.149Z,96430.29
2018-09-04T21:13:48.630Z,96433.70
2018-09-04T21:16:17.015Z,96434.95
2018-09-04T21:18:45.519Z,96435.36
2018-09-04T21:21:14.383Z,96429.91
2018-09-04T21:23:42.995Z,96427.23
2018-09-04T21:26:11.523Z,96422.09
2018-09-04T21:28:41.055Z,96422.08
2018-09-04T21:31:09.531Z,96433.16
2018-09-04T21:33:38.819Z,96425.16
2018-09-04T21:36:07.589Z,96432.14
2018-09-04T21:38:36.240Z,96429.87
2018-09-04T21:41:04.671Z,96422.89
2018-09-04T21:43:33.041Z,96422.77
2018-09-04T21:46:01.571Z,96427.50
2018-09-04T21:48:29.918Z,96428.41
2018-09-04T21:50:58.315Z,96426.17
2018-09-04T21:53:27.295Z,96431.71
2018-09-04T21:55:55.629Z,96431.59
2018-09-04T21:58:23.988Z,96433.96
2018-09-04T22:00:52.543Z,96417.84
2018-09-04T22:03:20.910Z,96425.23
2018-09-04T22:05:49.323Z,96426.27
2018-09-04T22:08:17.691Z,96429.86
2018-09-04T22:10:46.072Z,96436.44
2018-09-04T22:13:14.553Z,96440.22
2018-09-04T22:15:42.959Z,96445.16
2018-09-04T22:18:11.310Z,96441.87
2018-09-04T22:20:39.783Z,96445.28
2018-09-04T22:23:08.156Z,96448.47
2018-09-04T22:25:36.572Z,96448.56
2018-09-04T22:28:05.024Z,96450.84
2018-09-04T22:30:33.576Z,96450.32
2018-09-04T22:33:01.912Z,96451.04
2018-09-04T22:35:30.252Z,96452.70
2018-09-04T22:37:59.019Z,96452.90
2018-09-04T22:40:27.504Z,96462.25
2018-09-04T22:42:55.844Z,96461.11
2018-09-04T22:45:24.368Z,96455.86
2018-09-04T22:47:52.699Z,96460.06
2018-09-04T22:50:26.326Z,96469.42
2018-09-04T22:52:54.657Z,96456.07
2018-09-04T22:55:23.014Z,96461.19
2018-09-04T22:57:51.393Z,96456.39
2018-09-04T23:00:19.756Z,96459.16
2018-09-04T23:02:48.199Z,96462.73
2018-09-04T23:05:16.587Z,96461.41
2018-09-04T23:07:44.911Z,96460.06
2018-09-04T23:10:13.248Z,96452.17
2018-09-04T23:12:41.839Z,96451.75
2018-09-04T23:15:10.199Z,96450.64
2018-09-04T23:17:38.623Z,96449.80
2018-09-04T23:20:07.412Z,96449.39
2018-09-04T23:22:35.796Z,96451.64
2018-09-04T23:25:04.140Z,96451.83
2018-09-04T23:27:32.573Z,96451.13
2018-09-04T23:30:01.011Z,96450.50
2018-09-04T23:32:29.407Z,96456.76
2018-09-04T23:34:57.740Z,96457.87
2018-09-04T23:37:26.145Z,96460.15
2018-09-04T23:39:54.574Z,96453.47
2018-09-04T23:42:23.036Z,96457.77
2018-09-04T23:44:51.486Z,96464.73
2018-09-04T23:47:19.864Z,96465.02
2018-09-04T23:49:48.439Z,96465.55
2018-09-04T23:52:16.791Z,96467.27
2018-09-04T23:54:46.436Z,96464.60
2018-09-04T23:57:14.831Z,96454.34
2018-09-04T23:59:43.196Z,96453.77
